Terminal Aerodrome Forecast
Issued by NWS

Home | Current Version | Previous Version | Text Only | Print | Product List | Glossary On
Versions: 1 2 3 4 5 6 7 8 9 10 11 12 13 14 15 16 17
549
FTUS43 KDLH 171740
TAFHYR
TAF
KHYR 171740Z 1718/1818 18005KT P6SM SKC
     FM180400 23006KT P6SM FEW010 SCT200 WS020/31040KT
     FM181000 26008KT 6SM BR FEW010 SCT150 WS020/32035KT
     FM181500 27007KT P6SM FEW010 FEW150=

USA.gov is the U.S. government's official web portal to all federal, state and local government web resources and services.